createdAt,value
2022-09-29T00:00:37.099Z,11.95
2022-09-29T00:03:04.813Z,12.25
2022-09-29T00:05:31.635Z,11.35
2022-09-29T00:07:58.751Z,9.75
2022-09-29T00:10:25.589Z,8.82
2022-09-29T00:12:52.234Z,8.77
2022-09-29T00:15:18.922Z,10.55
2022-09-29T00:18:09.309Z,10.52
2022-09-29T00:20:32.607Z,10.75
2022-09-29T00:22:59.340Z,10.18
2022-09-29T00:25:26.350Z,8.13
2022-09-29T00:27:53.017Z,9.13
2022-09-29T00:30:19.665Z,7.82
2022-09-29T00:32:46.417Z,9.40
2022-09-29T00:35:13.051Z,7.95
2022-09-29T00:37:40.163Z,8.60
2022-09-29T00:40:07.830Z,9.35
2022-09-29T00:42:34.499Z,8.80
2022-09-29T00:45:01.285Z,11.95
2022-09-29T00:47:29.848Z,10.70
2022-09-29T00:50:03.141Z,8.25
2022-09-29T00:52:41.766Z,8.23
2022-09-29T00:55:20.095Z,9.65
2022-09-29T00:58:09.114Z,8.88
2022-09-29T01:00:37.085Z,7.28
2022-09-29T01:03:14.365Z,8.93
2022-09-29T01:05:45.500Z,7.55
2022-09-29T01:08:42.964Z,10.00
2022-09-29T01:11:12.333Z,7.68
2022-09-29T01:13:41.537Z,10.27
2022-09-29T01:16:08.585Z,6.47
2022-09-29T01:18:35.385Z,8.68
2022-09-29T01:21:25.776Z,6.95
2022-09-29T01:24:10.650Z,8.77
2022-09-29T01:26:56.077Z,8.85
2022-09-29T01:30:03.375Z,11.00
2022-09-29T01:32:48.378Z,8.07
2022-09-29T01:35:31.340Z,8.30
2022-09-29T01:38:32.696Z,8.20
2022-09-29T01:41:30.309Z,7.57
2022-09-29T01:44:06.316Z,10.75
2022-09-29T01:46:58.890Z,9.07
2022-09-29T01:49:30.294Z,9.10
2022-09-29T01:52:13.649Z,9.48
2022-09-29T01:54:45.706Z,8.45
2022-09-29T01:57:55.703Z,8.13
2022-09-29T02:00:23.955Z,9.18
2022-09-29T02:02:55.345Z,8.02
2022-09-29T02:05:34.610Z,12.05
2022-09-29T02:08:15.797Z,10.07
2022-09-29T02:11:05.600Z,7.68
2022-09-29T02:13:38.974Z,7.20
2022-09-29T02:16:09.999Z,7.30
2022-09-29T02:18:59.279Z,8.25
2022-09-29T02:21:28.109Z,8.25
2022-09-29T02:23:55.701Z,8.32
2022-09-29T02:26:25.606Z,8.95
2022-09-29T02:28:52.850Z,10.05
2022-09-29T02:31:19.959Z,11.88
2022-09-29T02:33:46.737Z,7.85
2022-09-29T02:36:25.886Z,9.27
2022-09-29T02:39:23.985Z,7.60
2022-09-29T02:41:56.533Z,7.85
2022-09-29T02:44:39.327Z,8.82
2022-09-29T02:47:19.194Z,9.48
2022-09-29T02:50:10.517Z,11.32
2022-09-29T02:52:46.351Z,10.15
2022-09-29T02:55:20.646Z,7.55
2022-09-29T02:58:29.540Z,8.75
2022-09-29T03:00:57.325Z,10.98
2022-09-29T03:03:24.111Z,9.48
2022-09-29T03:05:51.604Z,8.10
2022-09-29T03:08:18.277Z,9.18
2022-09-29T03:10:44.882Z,9.38
2022-09-29T03:13:11.520Z,9.50
2022-09-29T03:15:38.145Z,9.18
2022-09-29T03:18:09.318Z,7.78
2022-09-29T03:20:36.690Z,8.48
2022-09-29T03:23:03.336Z,8.60
2022-09-29T03:25:30.121Z,8.05
2022-09-29T03:27:56.772Z,7.45
2022-09-29T03:30:23.471Z,8.02
2022-09-29T03:32:50.345Z,9.45
2022-09-29T03:35:16.961Z,8.07
2022-09-29T03:37:43.608Z,9.32
2022-09-29T03:40:10.722Z,9.55
2022-09-29T03:42:37.593Z,10.43
2022-09-29T03:45:05.173Z,9.38
2022-09-29T03:47:31.921Z,11.23
2022-09-29T03:49:58.578Z,12.40
2022-09-29T03:52:25.251Z,10.93
2022-09-29T03:54:51.885Z,11.25
2022-09-29T03:57:18.509Z,12.55
2022-09-29T03:59:45.843Z,10.95
2022-09-29T04:02:13.193Z,9.13
2022-09-29T04:04:39.868Z,13.80
2022-09-29T04:07:06.496Z,9.57
2022-09-29T04:09:33.282Z,12.18
2022-09-29T04:11:59.970Z,11.98
2022-09-29T04:14:26.591Z,11.20
2022-09-29T04:16:53.229Z,11.07
2022-09-29T04:19:20.149Z,12.60
2022-09-29T04:21:46.971Z,12.57
2022-09-29T04:24:13.598Z,10.90
2022-09-29T04:26:40.360Z,13.25
2022-09-29T04:29:07.044Z,9.38
2022-09-29T04:31:33.817Z,14.10
2022-09-29T04:34:00.557Z,13.30
2022-09-29T04:36:27.488Z,14.68
2022-09-29T04:38:54.427Z,9.88
2022-09-29T04:41:21.042Z,10.95
2022-09-29T04:43:47.686Z,12.23
2022-09-29T04:46:15.406Z,11.02
2022-09-29T04:48:42.165Z,11.43
2022-09-29T04:51:10.571Z,9.25
2022-09-29T04:53:37.583Z,9.55
2022-09-29T04:56:08.860Z,8.25
2022-09-29T04:58:36.080Z,10.60
2022-09-29T05:01:08.049Z,13.43
2022-09-29T05:03:34.774Z,9.85
2022-09-29T05:06:01.444Z,12.02
2022-09-29T05:08:28.161Z,10.52
2022-09-29T05:10:54.820Z,11.18
2022-09-29T05:13:21.451Z,11.75
2022-09-29T05:15:48.080Z,12.48
2022-09-29T05:18:14.736Z,9.77
2022-09-29T05:20:48.174Z,12.98
2022-09-29T05:23:26.128Z,9.98
2022-09-29T05:25:52.762Z,10.70
2022-09-29T05:28:19.526Z,15.45
2022-09-29T05:30:46.158Z,10.30
2022-09-29T05:33:12.787Z,10.30
2022-09-29T05:35:39.721Z,9.93
2022-09-29T05:38:06.379Z,10.13
2022-09-29T05:40:33.140Z,10.20
2022-09-29T05:43:00.594Z,10.90
2022-09-29T05:45:27.509Z,9.40
2022-09-29T05:47:54.797Z,10.10
2022-09-29T05:50:22.192Z,14.43
2022-09-29T05:52:49.421Z,12.60
2022-09-29T05:55:16.576Z,10.43
2022-09-29T05:57:43.222Z,9.60
2022-09-29T06:00:10.164Z,11.05
2022-09-29T06:02:36.820Z,8.82
2022-09-29T06:05:03.671Z,9.57
2022-09-29T06:07:30.327Z,10.85
2022-09-29T06:09:56.972Z,10.23
2022-09-29T06:12:23.661Z,10.00
2022-09-29T06:14:50.382Z,12.63
2022-09-29T06:17:17.022Z,9.18
2022-09-29T06:19:44.896Z,8.98
2022-09-29T06:22:11.740Z,11.57
2022-09-29T06:24:38.429Z,19.17
2022-09-29T06:27:05.033Z,11.30
2022-09-29T06:29:31.670Z,7.90
2022-09-29T06:31:58.406Z,8.27
2022-09-29T06:34:25.364Z,8.23
2022-09-29T06:37:11.334Z,8.90
2022-09-29T06:39:38.073Z,8.45
2022-09-29T06:42:05.847Z,8.38
2022-09-29T06:44:32.898Z,8.52
2022-09-29T06:46:59.633Z,8.68
2022-09-29T06:49:26.496Z,8.13
2022-09-29T06:51:53.199Z,10.13
2022-09-29T06:54:22.153Z,9.88
2022-09-29T06:56:50.033Z,9.82
2022-09-29T06:59:17.789Z,9.07
2022-09-29T07:01:45.266Z,8.52
2022-09-29T07:04:12.134Z,8.80
2022-09-29T07:06:38.890Z,10.68
2022-09-29T07:09:05.534Z,9.95
2022-09-29T07:11:32.352Z,13.18
2022-09-29T07:13:59.116Z,11.30
2022-09-29T07:16:26.156Z,30.75
2022-09-29T07:18:53.124Z,11.20
2022-09-29T07:21:21.416Z,10.88
2022-09-29T07:23:48.721Z,12.35
2022-09-29T07:26:16.963Z,12.55
2022-09-29T07:28:45.310Z,12.75
2022-09-29T07:31:16.355Z,14.57
2022-09-29T07:33:48.659Z,18.23
2022-09-29T07:36:17.619Z,13.82
2022-09-29T07:38:49.423Z,16.23
2022-09-29T07:41:18.143Z,15.43
2022-09-29T07:43:45.031Z,16.38
2022-09-29T07:46:11.808Z,20.35
2022-09-29T07:48:39.024Z,18.13
2022-09-29T07:51:07.238Z,18.30
2022-09-29T07:53:34.512Z,18.08
2022-09-29T07:56:09.228Z,22.58
2022-09-29T07:58:37.503Z,20.80
2022-09-29T08:01:06.681Z,24.52
2022-09-29T08:03:33.947Z,23.48
2022-09-29T08:06:00.678Z,22.13
2022-09-29T08:08:27.500Z,20.90
2022-09-29T08:11:02.983Z,26.42
2022-09-29T08:13:31.254Z,23.65
2022-09-29T08:15:59.577Z,23.60
2022-09-29T08:18:31.324Z,23.23
2022-09-29T08:21:01.276Z,25.45
2022-09-29T08:23:31.864Z,32.40
2022-09-29T08:26:09.494Z,27.67
2022-09-29T08:28:38.218Z,27.05
2022-09-29T08:31:10.713Z,29.85
2022-09-29T08:33:37.769Z,29.23
2022-09-29T08:36:14.370Z,29.40
2022-09-29T08:38:45.515Z,28.40
2022-09-29T08:41:35.735Z,32.38
2022-09-29T08:44:37.615Z,37.88
2022-09-29T08:47:18.479Z,30.98
2022-09-29T08:52:26.304Z,40.40
2022-09-29T08:55:16.853Z,34.35
2022-09-29T08:57:53.364Z,33.03
2022-09-29T09:00:21.370Z,45.53
2022-09-29T09:02:57.259Z,34.70
2022-09-29T09:05:48.850Z,33.47
2022-09-29T09:08:52.877Z,32.05
2022-09-29T09:11:56.145Z,31.67
2022-09-29T09:14:55.441Z,53.17
2022-09-29T09:17:43.522Z,35.30
2022-09-29T09:20:28.138Z,31.55
2022-09-29T09:23:02.853Z,37.63
2022-09-29T09:25:44.041Z,32.30
2022-09-29T09:28:34.936Z,35.13
2022-09-29T09:31:14.172Z,35.97
2022-09-29T09:34:04.060Z,34.15
2022-09-29T09:36:44.494Z,37.75
2022-09-29T09:39:16.998Z,42.25
2022-09-29T09:41:47.864Z,40.28
2022-09-29T09:44:26.908Z,40.10
2022-09-29T09:47:00.022Z,42.22
2022-09-29T09:49:30.045Z,42.08
2022-09-29T09:52:03.696Z,43.30
2022-09-29T09:54:34.938Z,41.22
2022-09-29T09:57:16.718Z,42.78
2022-09-29T10:00:11.523Z,41.80
2022-09-29T10:02:57.982Z,40.30
2022-09-29T10:05:34.331Z,38.90
2022-09-29T10:08:01.270Z,41.00
2022-09-29T10:10:29.509Z,41.10
2022-09-29T10:13:04.965Z,43.15
2022-09-29T10:15:52.645Z,40.03
2022-09-29T10:18:48.770Z,40.00
2022-09-29T10:21:36.128Z,44.20
2022-09-29T10:24:04.319Z,43.20
2022-09-29T10:26:44.059Z,44.22
2022-09-29T10:29:25.334Z,42.97
2022-09-29T10:32:01.897Z,39.20
2022-09-29T10:34:30.698Z,35.78
2022-09-29T10:37:01.862Z,40.05
2022-09-29T10:39:31.253Z,34.70
2022-09-29T10:41:57.896Z,33.35
2022-09-29T10:44:30.105Z,18.23
2022-09-29T10:46:57.138Z,21.77
2022-09-29T10:49:28.152Z,22.45
2022-09-29T10:52:02.250Z,15.38
2022-09-29T10:54:33.795Z,15.15
2022-09-29T10:57:15.729Z,20.15
2022-09-29T10:59:50.895Z,25.30
2022-09-29T11:02:36.859Z,21.98
2022-09-29T11:05:15.907Z,22.85
2022-09-29T11:07:48.709Z,18.15
2022-09-29T11:10:35.949Z,14.20
2022-09-29T11:13:19.108Z,14.13
2022-09-29T11:15:45.826Z,12.35
2022-09-29T11:18:19.410Z,11.55
2022-09-29T11:20:53.012Z,14.07
2022-09-29T11:23:50.700Z,13.00
2022-09-29T11:26:29.137Z,13.23
2022-09-29T11:28:58.855Z,15.18
2022-09-29T11:31:43.135Z,14.00
2022-09-29T11:34:34.354Z,16.10
2022-09-29T11:37:25.976Z,14.10
2022-09-29T11:40:01.052Z,10.05
2022-09-29T11:42:56.999Z,13.85
2022-09-29T11:45:37.405Z,9.85
2022-09-29T11:51:01.796Z,10.35
2022-09-29T11:54:08.090Z,11.82
2022-09-29T11:56:55.424Z,11.10
2022-09-29T11:59:54.215Z,9.50
2022-09-29T12:02:26.720Z,10.30
2022-09-29T12:05:13.711Z,8.10
2022-09-29T12:08:04.910Z,9.30
2022-09-29T12:10:59.878Z,7.28
2022-09-29T12:13:39.249Z,9.05
2022-09-29T12:16:19.731Z,7.38
2022-09-29T12:18:51.395Z,7.72
2022-09-29T12:21:33.802Z,8.43
2022-09-29T12:24:03.384Z,9.93
2022-09-29T12:26:31.871Z,9.25
2022-09-29T12:29:28.587Z,11.57
2022-09-29T12:31:59.167Z,11.85
2022-09-29T12:34:51.284Z,12.75
2022-09-29T12:37:33.561Z,9.75
2022-09-29T12:40:17.091Z,8.85
2022-09-29T12:43:11.868Z,9.50
2022-09-29T12:45:48.414Z,8.07
2022-09-29T12:48:45.303Z,7.60
2022-09-29T12:51:22.710Z,6.90
2022-09-29T12:53:50.285Z,7.07
2022-09-29T12:56:49.105Z,7.97
2022-09-29T12:59:18.703Z,10.25
2022-09-29T13:01:50.029Z,9.40
2022-09-29T13:04:50.729Z,8.10
2022-09-29T13:07:47.881Z,8.38
2022-09-29T13:10:48.752Z,8.00
2022-09-29T13:13:21.083Z,6.85
2022-09-29T13:16:05.601Z,7.07
2022-09-29T13:18:54.053Z,6.72
2022-09-29T13:21:39.604Z,6.90
2022-09-29T13:24:30.841Z,5.13
2022-09-29T13:27:26.100Z,7.22
2022-09-29T13:30:26.135Z,6.82
2022-09-29T13:33:18.091Z,5.78
2022-09-29T13:35:49.815Z,6.40
2022-09-29T13:38:18.973Z,7.57
2022-09-29T13:41:11.217Z,5.47
2022-09-29T13:43:39.550Z,7.65
2022-09-29T13:46:30.829Z,4.10
2022-09-29T13:49:13.856Z,5.80
2022-09-29T13:51:47.829Z,5.68
2022-09-29T13:54:24.353Z,5.80
2022-09-29T13:57:06.226Z,7.68
2022-09-29T13:59:33.820Z,8.43
2022-09-29T14:02:01.445Z,5.47
2022-09-29T14:04:37.511Z,7.03
2022-09-29T14:07:06.069Z,7.18
2022-09-29T14:09:41.455Z,6.40
2022-09-29T14:12:17.001Z,5.15
2022-09-29T14:14:50.759Z,6.57
2022-09-29T14:17:21.134Z,4.70
2022-09-29T14:22:36.394Z,4.90
2022-09-29T14:25:11.543Z,5.90
2022-09-29T14:27:58.690Z,3.50
2022-09-29T14:30:49.438Z,5.55
2022-09-29T14:33:21.832Z,5.03
2022-09-29T14:36:00.700Z,3.47
2022-09-29T14:38:41.361Z,3.13
2022-09-29T14:41:07.988Z,5.30
2022-09-29T14:43:46.316Z,3.95
2022-09-29T14:46:39.811Z,4.20
2022-09-29T14:49:49.200Z,4.20
2022-09-29T14:52:25.236Z,3.95
2022-09-29T14:55:06.882Z,3.67
2022-09-29T14:57:46.649Z,4.47
2022-09-29T15:00:18.561Z,5.47
2022-09-29T15:02:59.873Z,4.07
2022-09-29T15:05:37.725Z,3.83
2022-09-29T15:08:26.096Z,4.60
2022-09-29T15:10:52.752Z,4.53
2022-09-29T15:13:31.399Z,6.68
2022-09-29T15:16:15.589Z,7.47
2022-09-29T15:19:21.945Z,4.50
2022-09-29T15:22:28.717Z,4.35
2022-09-29T15:25:17.027Z,4.57
2022-09-29T15:27:47.785Z,3.70
2022-09-29T15:30:16.976Z,3.70
2022-09-29T15:32:46.124Z,7.43
2022-09-29T15:35:15.825Z,3.90
2022-09-29T15:37:45.285Z,6.00
2022-09-29T15:40:16.452Z,4.57
2022-09-29T15:42:43.139Z,3.65
2022-09-29T15:45:18.101Z,4.78
2022-09-29T15:47:44.761Z,3.80
2022-09-29T15:50:22.972Z,4.65
2022-09-29T15:52:51.080Z,5.45
2022-09-29T15:55:21.614Z,5.63
2022-09-29T15:57:58.799Z,3.92
2022-09-29T16:00:28.103Z,3.85
2022-09-29T16:03:04.022Z,3.83
2022-09-29T16:05:35.322Z,4.28
2022-09-29T16:08:08.877Z,3.58
2022-09-29T16:10:48.365Z,3.17
2022-09-29T16:13:21.201Z,4.60
2022-09-29T16:15:50.083Z,4.25
2022-09-29T16:18:25.814Z,4.82
2022-09-29T16:20:59.095Z,4.18
2022-09-29T16:23:35.912Z,3.63
2022-09-29T16:26:08.565Z,5.22
2022-09-29T16:28:37.557Z,4.65
2022-09-29T16:31:17.411Z,4.45
2022-09-29T16:33:46.420Z,4.10
2022-09-29T16:36:22.263Z,4.22
2022-09-29T16:38:51.503Z,3.55
2022-09-29T16:41:35.863Z,6.22
2022-09-29T16:44:20.245Z,4.15
2022-09-29T16:46:54.804Z,4.22
2022-09-29T16:49:35.423Z,3.95
2022-09-29T16:52:14.442Z,5.68
2022-09-29T16:54:43.616Z,5.13
2022-09-29T16:57:31.163Z,6.75
2022-09-29T17:00:00.224Z,6.38
2022-09-29T17:02:28.509Z,3.92
2022-09-29T17:04:56.595Z,5.85
2022-09-29T17:07:26.729Z,3.97
2022-09-29T17:10:00.809Z,5.72
2022-09-29T17:12:29.625Z,7.30
2022-09-29T17:14:57.196Z,6.00
2022-09-29T17:17:26.564Z,4.70
2022-09-29T17:19:56.515Z,6.53
2022-09-29T17:22:36.656Z,6.95
2022-09-29T17:25:04.710Z,6.47
2022-09-29T17:27:50.084Z,8.55
2022-09-29T17:30:22.711Z,12.10
2022-09-29T17:32:51.269Z,11.32
2022-09-29T17:35:21.230Z,9.15
2022-09-29T17:37:48.633Z,8.88
2022-09-29T17:40:32.584Z,8.25
2022-09-29T17:43:00.435Z,11.18
2022-09-29T17:45:29.844Z,13.85
2022-09-29T17:47:56.964Z,13.50
2022-09-29T17:50:30.184Z,12.52
2022-09-29T17:53:00.589Z,11.38
2022-09-29T17:57:54.245Z,13.98
2022-09-29T18:00:33.336Z,14.27
2022-09-29T18:02:59.989Z,13.82
2022-09-29T18:05:28.695Z,11.68
2022-09-29T18:07:57.430Z,9.50
2022-09-29T18:10:42.065Z,10.43
2022-09-29T18:13:08.884Z,10.07
2022-09-29T18:15:36.450Z,11.20
2022-09-29T18:18:07.655Z,14.77
2022-09-29T18:20:40.098Z,17.90
2022-09-29T18:23:06.739Z,14.48
2022-09-29T18:25:34.481Z,13.38
2022-09-29T18:28:02.256Z,8.95
2022-09-29T18:30:31.781Z,10.48
2022-09-29T18:33:00.059Z,10.13
2022-09-29T18:35:30.102Z,11.50
2022-09-29T18:37:58.116Z,9.52
2022-09-29T18:40:26.761Z,10.60
2022-09-29T18:42:57.312Z,12.27
2022-09-29T18:45:26.205Z,7.75
2022-09-29T18:48:03.876Z,12.02
2022-09-29T18:50:33.869Z,15.38
2022-09-29T18:53:01.857Z,9.88
2022-09-29T18:55:30.382Z,10.55
2022-09-29T18:57:58.441Z,11.25
2022-09-29T19:00:28.100Z,10.68
2022-09-29T19:02:54.846Z,12.55
2022-09-29T19:05:24.742Z,12.93
2022-09-29T19:07:56.969Z,22.15
2022-09-29T19:10:24.085Z,36.42
2022-09-29T19:12:51.517Z,18.10
2022-09-29T19:15:20.482Z,15.15
2022-09-29T19:17:48.282Z,12.80
2022-09-29T19:20:17.721Z,12.02
2022-09-29T19:22:45.958Z,8.60
2022-09-29T19:25:15.377Z,9.38
2022-09-29T19:27:43.447Z,13.27
2022-09-29T19:30:12.185Z,10.60
2022-09-29T19:32:38.905Z,11.40
2022-09-29T19:35:07.949Z,11.15
2022-09-29T19:37:34.875Z,11.45
2022-09-29T19:40:01.773Z,12.57
2022-09-29T19:42:28.583Z,13.98
2022-09-29T19:44:55.240Z,14.13
2022-09-29T19:47:21.969Z,17.98
2022-09-29T19:49:48.894Z,14.50
2022-09-29T19:52:15.856Z,16.33
2022-09-29T19:54:42.523Z,13.07
2022-09-29T19:57:12.716Z,15.38
2022-09-29T19:59:41.034Z,17.20
2022-09-29T20:02:14.666Z,12.63
2022-09-29T20:04:43.385Z,12.88
2022-09-29T20:07:10.023Z,12.65
2022-09-29T20:09:36.797Z,11.02
2022-09-29T20:12:03.516Z,10.07
2022-09-29T20:14:32.163Z,10.00
2022-09-29T20:16:58.868Z,11.07
2022-09-29T20:19:27.894Z,10.10
2022-09-29T20:21:54.641Z,9.80
2022-09-29T20:24:24.100Z,13.48
2022-09-29T20:26:51.246Z,10.90
2022-09-29T20:29:19.485Z,12.95
2022-09-29T20:31:48.031Z,10.65
2022-09-29T20:34:18.296Z,11.80
2022-09-29T20:36:45.335Z,8.40
2022-09-29T20:39:12.780Z,11.98
2022-09-29T20:41:40.024Z,10.10
2022-09-29T20:44:06.680Z,9.52
2022-09-29T20:46:33.544Z,10.30
2022-09-29T20:49:02.928Z,13.90
2022-09-29T20:51:29.852Z,10.50
2022-09-29T20:53:58.696Z,8.73
2022-09-29T20:56:31.514Z,8.48
2022-09-29T20:59:00.210Z,14.80
2022-09-29T21:01:29.541Z,9.88
2022-09-29T21:04:00.474Z,10.13
2022-09-29T21:06:29.422Z,8.32
2022-09-29T21:08:57.954Z,11.30
2022-09-29T21:11:25.001Z,9.25
2022-09-29T21:13:54.801Z,12.43
2022-09-29T21:16:21.475Z,9.32
2022-09-29T21:18:48.647Z,8.85
2022-09-29T21:21:15.796Z,9.90
2022-09-29T21:23:43.112Z,8.50
2022-09-29T21:26:19.092Z,7.50
2022-09-29T21:28:52.795Z,7.80
2022-09-29T21:31:22.066Z,9.32
2022-09-29T21:33:54.566Z,6.90
2022-09-29T21:36:22.595Z,6.68
2022-09-29T21:38:49.324Z,7.47
2022-09-29T21:41:26.499Z,10.32
2022-09-29T21:44:02.227Z,10.75
2022-09-29T21:46:31.297Z,8.45
2022-09-29T21:49:00.095Z,10.88
2022-09-29T21:51:32.261Z,8.73
2022-09-29T21:54:01.209Z,9.77
2022-09-29T21:56:30.380Z,10.82
2022-09-29T21:58:57.247Z,10.77
2022-09-29T22:01:24.424Z,9.80
2022-09-29T22:03:52.221Z,8.30
2022-09-29T22:06:27.353Z,8.95
2022-09-29T22:08:55.952Z,9.50
2022-09-29T22:11:28.498Z,12.43
2022-09-29T22:13:57.156Z,8.90
2022-09-29T22:16:26.481Z,9.35
2022-09-29T22:19:18.364Z,15.20
2022-09-29T22:21:40.666Z,9.98
2022-09-29T22:24:07.618Z,8.23
2022-09-29T22:26:34.293Z,9.30
2022-09-29T22:29:02.041Z,6.78
2022-09-29T22:31:30.225Z,7.47
2022-09-29T22:34:00.061Z,7.38
2022-09-29T22:36:28.688Z,8.82
2022-09-29T22:38:55.778Z,4.95
2022-09-29T22:41:24.082Z,8.63
2022-09-29T22:43:55.506Z,7.80
2022-09-29T22:46:24.259Z,7.82
2022-09-29T22:48:51.330Z,5.50
2022-09-29T22:51:18.864Z,11.70
2022-09-29T22:53:45.565Z,7.32
2022-09-29T22:56:15.843Z,6.38
2022-09-29T22:58:43.192Z,6.22
2022-09-29T23:01:13.722Z,6.32
2022-09-29T23:03:42.191Z,5.25
2022-09-29T23:06:10.042Z,5.57
2022-09-29T23:08:37.320Z,5.50
2022-09-29T23:11:07.332Z,8.93
2022-09-29T23:13:36.807Z,5.88
2022-09-29T23:16:09.603Z,6.57
2022-09-29T23:18:43.785Z,10.93
2022-09-29T23:21:12.042Z,6.57
2022-09-29T23:23:38.735Z,6.32
2022-09-29T23:26:05.484Z,7.40
2022-09-29T23:28:32.230Z,6.07
2022-09-29T23:31:06.510Z,8.50
2022-09-29T23:33:33.861Z,10.02
2022-09-29T23:36:11.286Z,13.52
2022-09-29T23:38:58.507Z,8.45
2022-09-29T23:41:27.330Z,9.30
2022-09-29T23:43:57.240Z,9.25
2022-09-29T23:46:25.488Z,6.95
2022-09-29T23:48:52.269Z,6.88
2022-09-29T23:51:19.056Z,7.85
2022-09-29T23:53:45.829Z,6.60
2022-09-29T23:56:12.539Z,5.75
2022-09-29T23:58:39.203Z,5.15
